sensor_id;sensor_type;location;lat;lon;timestamp;P1;durP1;ratioP1;P2;durP2;ratioP2
72493;SDS011;60520;49.182;-0.348;2022-12-07T00:00:19;6.88;;;5.60;;
72493;SDS011;60520;49.182;-0.348;2022-12-07T00:02:46;6.97;;;5.63;;
72493;SDS011;60520;49.182;-0.348;2022-12-07T00:05:15;7.28;;;5.78;;
72493;SDS011;60520;49.182;-0.348;2022-12-07T00:07:42;7.60;;;5.93;;
72493;SDS011;60520;49.182;-0.348;2022-12-07T00:10:09;7.43;;;5.70;;
72493;SDS011;60520;49.182;-0.348;2022-12-07T00:12:36;6.95;;;5.78;;
72493;SDS011;60520;49.182;-0.348;2022-12-07T00:15:04;6.85;;;5.47;;
72493;SDS011;60520;49.182;-0.348;2022-12-07T00:17:31;6.63;;;5.55;;
72493;SDS011;60520;49.182;-0.348;2022-12-07T00:19:58;7.00;;;5.68;;
72493;SDS011;60520;49.182;-0.348;2022-12-07T00:22:27;7.30;;;5.75;;
72493;SDS011;60520;49.182;-0.348;2022-12-07T00:24:54;6.80;;;5.50;;
72493;SDS011;60520;49.182;-0.348;2022-12-07T00:27:21;7.82;;;5.93;;
72493;SDS011;60520;49.182;-0.348;2022-12-07T00:29:48;6.82;;;5.75;;
72493;SDS011;60520;49.182;-0.348;2022-12-07T00:32:15;7.18;;;5.25;;
72493;SDS011;60520;49.182;-0.348;2022-12-07T00:34:42;7.45;;;5.85;;
72493;SDS011;60520;49.182;-0.348;2022-12-07T00:37:09;6.22;;;5.15;;
72493;SDS011;60520;49.182;-0.348;2022-12-07T00:39:39;6.40;;;5.05;;
72493;SDS011;60520;49.182;-0.348;2022-12-07T00:42:06;6.35;;;5.35;;
72493;SDS011;60520;49.182;-0.348;2022-12-07T00:44:33;6.70;;;5.00;;
72493;SDS011;60520;49.182;-0.348;2022-12-07T00:47:00;5.93;;;5.05;;
72493;SDS011;60520;49.182;-0.348;2022-12-07T00:49:27;6.65;;;5.30;;
72493;SDS011;60520;49.182;-0.348;2022-12-07T00:51:54;6.28;;;5.40;;
72493;SDS011;60520;49.182;-0.348;2022-12-07T00:54:22;6.15;;;4.97;;
72493;SDS011;60520;49.182;-0.348;2022-12-07T00:56:50;6.65;;;5.50;;
72493;SDS011;60520;49.182;-0.348;2022-12-07T00:59:17;6.97;;;5.30;;
72493;SDS011;60520;49.182;-0.348;2022-12-07T01:01:44;6.63;;;5.03;;
72493;SDS011;60520;49.182;-0.348;2022-12-07T01:04:11;7.25;;;5.28;;
72493;SDS011;60520;49.182;-0.348;2022-12-07T01:06:38;7.05;;;5.15;;
72493;SDS011;60520;49.182;-0.348;2022-12-07T01:09:05;6.75;;;5.22;;
72493;SDS011;60520;49.182;-0.348;2022-12-07T01:11:33;7.22;;;5.32;;
72493;SDS011;60520;49.182;-0.348;2022-12-07T01:14:01;5.85;;;5.00;;
72493;SDS011;60520;49.182;-0.348;2022-12-07T01:16:29;6.22;;;5.22;;
72493;SDS011;60520;49.182;-0.348;2022-12-07T01:18:57;6.22;;;4.88;;
72493;SDS011;60520;49.182;-0.348;2022-12-07T01:21:26;5.95;;;4.90;;
72493;SDS011;60520;49.182;-0.348;2022-12-07T01:23:53;6.15;;;5.30;;
72493;SDS011;60520;49.182;-0.348;2022-12-07T01:26:21;8.05;;;5.25;;
72493;SDS011;60520;49.182;-0.348;2022-12-07T01:28:49;6.28;;;5.20;;
72493;SDS011;60520;49.182;-0.348;2022-12-07T01:31:18;6.50;;;5.00;;
72493;SDS011;60520;49.182;-0.348;2022-12-07T01:33:47;6.15;;;5.00;;
72493;SDS011;60520;49.182;-0.348;2022-12-07T01:36:15;5.72;;;4.65;;
72493;SDS011;60520;49.182;-0.348;2022-12-07T01:38:42;6.38;;;5.15;;
72493;SDS011;60520;49.182;-0.348;2022-12-07T01:41:09;6.95;;;5.30;;
72493;SDS011;60520;49.182;-0.348;2022-12-07T01:44:06;6.10;;;4.68;;
72493;SDS011;60520;49.182;-0.348;2022-12-07T01:46:25;7.18;;;5.30;;
72493;SDS011;60520;49.182;-0.348;2022-12-07T01:48:52;6.28;;;5.22;;
72493;SDS011;60520;49.182;-0.348;2022-12-07T01:51:19;6.43;;;5.10;;
72493;SDS011;60520;49.182;-0.348;2022-12-07T01:53:46;5.55;;;4.78;;
72493;SDS011;60520;49.182;-0.348;2022-12-07T01:56:14;6.40;;;5.25;;
72493;SDS011;60520;49.182;-0.348;2022-12-07T01:58:43;6.72;;;4.97;;
72493;SDS011;60520;49.182;-0.348;2022-12-07T02:01:11;6.03;;;4.90;;
72493;SDS011;60520;49.182;-0.348;2022-12-07T02:03:40;5.47;;;4.65;;
72493;SDS011;60520;49.182;-0.348;2022-12-07T02:06:08;5.60;;;4.82;;
72493;SDS011;60520;49.182;-0.348;2022-12-07T02:08:36;5.50;;;4.80;;
72493;SDS011;60520;49.182;-0.348;2022-12-07T02:11:03;5.40;;;4.55;;
72493;SDS011;60520;49.182;-0.348;2022-12-07T02:13:32;7.13;;;4.90;;
72493;SDS011;60520;49.182;-0.348;2022-12-07T02:16:05;5.38;;;4.65;;
72493;SDS011;60520;49.182;-0.348;2022-12-07T02:18:44;5.80;;;4.97;;
72493;SDS011;60520;49.182;-0.348;2022-12-07T02:21:16;4.93;;;4.40;;
72493;SDS011;60520;49.182;-0.348;2022-12-07T02:23:58;5.10;;;4.30;;
72493;SDS011;60520;49.182;-0.348;2022-12-07T02:26:38;5.60;;;4.90;;
72493;SDS011;60520;49.182;-0.348;2022-12-07T02:29:11;5.43;;;4.50;;
72493;SDS011;60520;49.182;-0.348;2022-12-07T02:31:41;5.10;;;4.43;;
72493;SDS011;60520;49.182;-0.348;2022-12-07T02:34:11;5.60;;;4.55;;
72493;SDS011;60520;49.182;-0.348;2022-12-07T02:36:42;4.93;;;4.40;;
72493;SDS011;60520;49.182;-0.348;2022-12-07T02:39:11;6.45;;;4.63;;
72493;SDS011;60520;49.182;-0.348;2022-12-07T02:41:42;5.63;;;4.60;;
72493;SDS011;60520;49.182;-0.348;2022-12-07T02:44:12;5.90;;;4.85;;
72493;SDS011;60520;49.182;-0.348;2022-12-07T02:46:40;6.68;;;4.85;;
72493;SDS011;60520;49.182;-0.348;2022-12-07T02:49:08;5.85;;;4.47;;
72493;SDS011;60520;49.182;-0.348;2022-12-07T02:51:38;6.03;;;4.82;;
72493;SDS011;60520;49.182;-0.348;2022-12-07T02:54:08;5.75;;;4.88;;
72493;SDS011;60520;49.182;-0.348;2022-12-07T02:56:38;5.82;;;4.85;;
72493;SDS011;60520;49.182;-0.348;2022-12-07T02:59:07;6.40;;;5.20;;
72493;SDS011;60520;49.182;-0.348;2022-12-07T03:01:41;6.45;;;4.70;;
72493;SDS011;60520;49.182;-0.348;2022-12-07T03:04:20;5.43;;;4.38;;
72493;SDS011;60520;49.182;-0.348;2022-12-07T03:06:53;5.50;;;4.40;;
72493;SDS011;60520;49.182;-0.348;2022-12-07T03:09:25;5.47;;;4.82;;
72493;SDS011;60520;49.182;-0.348;2022-12-07T03:11:55;5.53;;;4.38;;
72493;SDS011;60520;49.182;-0.348;2022-12-07T03:14:29;5.53;;;4.72;;
72493;SDS011;60520;49.182;-0.348;2022-12-07T03:17:00;5.60;;;4.88;;
72493;SDS011;60520;49.182;-0.348;2022-12-07T03:19:29;5.78;;;4.75;;
72493;SDS011;60520;49.182;-0.348;2022-12-07T03:21:59;6.10;;;4.53;;
72493;SDS011;60520;49.182;-0.348;2022-12-07T03:24:27;6.35;;;5.07;;
72493;SDS011;60520;49.182;-0.348;2022-12-07T03:26:57;5.38;;;4.70;;
72493;SDS011;60520;49.182;-0.348;2022-12-07T03:29:28;5.30;;;4.47;;
72493;SDS011;60520;49.182;-0.348;2022-12-07T03:31:56;6.10;;;5.00;;
72493;SDS011;60520;49.182;-0.348;2022-12-07T03:34:29;5.30;;;4.70;;
72493;SDS011;60520;49.182;-0.348;2022-12-07T03:36:58;6.28;;;4.60;;
72493;SDS011;60520;49.182;-0.348;2022-12-07T03:39:27;5.85;;;4.82;;
72493;SDS011;60520;49.182;-0.348;2022-12-07T03:41:56;5.57;;;4.60;;
72493;SDS011;60520;49.182;-0.348;2022-12-07T03:44:23;5.20;;;4.32;;
72493;SDS011;60520;49.182;-0.348;2022-12-07T03:46:52;5.63;;;4.47;;
72493;SDS011;60520;49.182;-0.348;2022-12-07T03:49:23;5.53;;;4.20;;
72493;SDS011;60520;49.182;-0.348;2022-12-07T03:51:55;5.18;;;4.40;;
72493;SDS011;60520;49.182;-0.348;2022-12-07T03:54:24;5.63;;;4.22;;
72493;SDS011;60520;49.182;-0.348;2022-12-07T03:56:53;5.40;;;4.60;;
72493;SDS011;60520;49.182;-0.348;2022-12-07T03:59:21;5.35;;;4.35;;
72493;SDS011;60520;49.182;-0.348;2022-12-07T04:01:51;5.38;;;4.45;;
72493;SDS011;60520;49.182;-0.348;2022-12-07T04:04:19;5.65;;;4.38;;
72493;SDS011;60520;49.182;-0.348;2022-12-07T04:06:48;5.38;;;4.32;;
72493;SDS011;60520;49.182;-0.348;2022-12-07T04:09:17;5.82;;;4.55;;
72493;SDS011;60520;49.182;-0.348;2022-12-07T04:11:44;5.90;;;4.57;;
72493;SDS011;60520;49.182;-0.348;2022-12-07T04:14:11;5.20;;;4.32;;
72493;SDS011;60520;49.182;-0.348;2022-12-07T04:16:45;4.63;;;3.97;;
72493;SDS011;60520;49.182;-0.348;2022-12-07T04:19:12;6.38;;;4.75;;
72493;SDS011;60520;49.182;-0.348;2022-12-07T04:21:39;4.97;;;4.40;;
72493;SDS011;60520;49.182;-0.348;2022-12-07T04:24:06;5.35;;;4.28;;
72493;SDS011;60520;49.182;-0.348;2022-12-07T04:26:35;5.57;;;4.50;;
72493;SDS011;60520;49.182;-0.348;2022-12-07T04:29:02;5.15;;;4.07;;
72493;SDS011;60520;49.182;-0.348;2022-12-07T04:31:29;4.45;;;3.83;;
72493;SDS011;60520;49.182;-0.348;2022-12-07T04:33:57;4.63;;;4.13;;
72493;SDS011;60520;49.182;-0.348;2022-12-07T04:36:24;6.43;;;4.55;;
72493;SDS011;60520;49.182;-0.348;2022-12-07T04:38:52;5.80;;;4.88;;
72493;SDS011;60520;49.182;-0.348;2022-12-07T04:41:19;4.70;;;4.20;;
72493;SDS011;60520;49.182;-0.348;2022-12-07T04:43:53;4.68;;;4.18;;
72493;SDS011;60520;49.182;-0.348;2022-12-07T04:46:20;5.85;;;4.53;;
72493;SDS011;60520;49.182;-0.348;2022-12-07T04:48:47;5.10;;;4.20;;
72493;SDS011;60520;49.182;-0.348;2022-12-07T04:51:15;5.55;;;4.60;;
72493;SDS011;60520;49.182;-0.348;2022-12-07T04:53:45;5.80;;;4.38;;
72493;SDS011;60520;49.182;-0.348;2022-12-07T04:56:12;4.72;;;3.95;;
72493;SDS011;60520;49.182;-0.348;2022-12-07T04:58:39;5.43;;;4.53;;
72493;SDS011;60520;49.182;-0.348;2022-12-07T05:01:08;5.15;;;4.20;;
72493;SDS011;60520;49.182;-0.348;2022-12-07T05:03:35;5.13;;;4.22;;
72493;SDS011;60520;49.182;-0.348;2022-12-07T05:06:03;6.00;;;4.20;;
72493;SDS011;60520;49.182;-0.348;2022-12-07T05:08:31;5.68;;;4.40;;
72493;SDS011;60520;49.182;-0.348;2022-12-07T05:10:58;5.50;;;4.13;;
72493;SDS011;60520;49.182;-0.348;2022-12-07T05:13:25;4.93;;;4.28;;
72493;SDS011;60520;49.182;-0.348;2022-12-07T05:15:53;5.45;;;4.43;;
72493;SDS011;60520;49.182;-0.348;2022-12-07T05:18:21;4.63;;;4.13;;
72493;SDS011;60520;49.182;-0.348;2022-12-07T05:20:48;4.88;;;4.38;;
72493;SDS011;60520;49.182;-0.348;2022-12-07T05:23:16;4.88;;;4.30;;
72493;SDS011;60520;49.182;-0.348;2022-12-07T05:25:43;5.53;;;4.05;;
72493;SDS011;60520;49.182;-0.348;2022-12-07T05:28:11;4.95;;;4.07;;
72493;SDS011;60520;49.182;-0.348;2022-12-07T05:30:38;4.53;;;3.78;;
72493;SDS011;60520;49.182;-0.348;2022-12-07T05:33:05;4.65;;;3.85;;
72493;SDS011;60520;49.182;-0.348;2022-12-07T05:35:34;5.25;;;4.15;;
72493;SDS011;60520;49.182;-0.348;2022-12-07T05:38:02;5.15;;;4.07;;
72493;SDS011;60520;49.182;-0.348;2022-12-07T05:40:29;5.07;;;4.25;;
72493;SDS011;60520;49.182;-0.348;2022-12-07T05:42:57;4.50;;;4.03;;
72493;SDS011;60520;49.182;-0.348;2022-12-07T05:45:24;5.15;;;4.13;;
72493;SDS011;60520;49.182;-0.348;2022-12-07T05:47:51;4.20;;;3.80;;
72493;SDS011;60520;49.182;-0.348;2022-12-07T05:50:18;5.05;;;4.20;;
72493;SDS011;60520;49.182;-0.348;2022-12-07T05:52:46;5.10;;;4.07;;
72493;SDS011;60520;49.182;-0.348;2022-12-07T05:55:13;5.10;;;4.20;;
72493;SDS011;60520;49.182;-0.348;2022-12-07T05:57:41;4.10;;;3.65;;
72493;SDS011;60520;49.182;-0.348;2022-12-07T06:00:29;4.45;;;4.00;;
72493;SDS011;60520;49.182;-0.348;2022-12-07T06:02:55;4.47;;;3.67;;
72493;SDS011;60520;49.182;-0.348;2022-12-07T06:05:22;4.50;;;3.80;;
72493;SDS011;60520;49.182;-0.348;2022-12-07T06:07:50;5.07;;;4.25;;
72493;SDS011;60520;49.182;-0.348;2022-12-07T06:10:17;4.10;;;3.60;;
72493;SDS011;60520;49.182;-0.348;2022-12-07T06:12:45;4.47;;;3.70;;
72493;SDS011;60520;49.182;-0.348;2022-12-07T06:15:11;4.43;;;3.80;;
72493;SDS011;60520;49.182;-0.348;2022-12-07T06:17:39;5.15;;;3.90;;
72493;SDS011;60520;49.182;-0.348;2022-12-07T06:20:07;5.18;;;4.50;;
72493;SDS011;60520;49.182;-0.348;2022-12-07T06:22:34;4.82;;;4.15;;
72493;SDS011;60520;49.182;-0.348;2022-12-07T06:25:03;4.20;;;3.80;;
72493;SDS011;60520;49.182;-0.348;2022-12-07T06:27:30;5.10;;;4.07;;
72493;SDS011;60520;49.182;-0.348;2022-12-07T06:29:57;4.57;;;3.70;;
72493;SDS011;60520;49.182;-0.348;2022-12-07T06:32:30;4.85;;;4.03;;
72493;SDS011;60520;49.182;-0.348;2022-12-07T06:34:57;4.32;;;3.72;;
72493;SDS011;60520;49.182;-0.348;2022-12-07T06:37:24;4.78;;;3.95;;
72493;SDS011;60520;49.182;-0.348;2022-12-07T06:39:51;4.93;;;3.80;;
72493;SDS011;60520;49.182;-0.348;2022-12-07T06:42:20;4.80;;;4.03;;
72493;SDS011;60520;49.182;-0.348;2022-12-07T06:44:47;5.05;;;3.75;;
72493;SDS011;60520;49.182;-0.348;2022-12-07T06:47:14;4.38;;;3.70;;
72493;SDS011;60520;49.182;-0.348;2022-12-07T06:49:41;4.15;;;3.75;;
72493;SDS011;60520;49.182;-0.348;2022-12-07T06:52:11;4.50;;;3.70;;
72493;SDS011;60520;49.182;-0.348;2022-12-07T06:54:38;4.50;;;3.75;;
72493;SDS011;60520;49.182;-0.348;2022-12-07T06:57:06;4.50;;;3.90;;
72493;SDS011;60520;49.182;-0.348;2022-12-07T06:59:34;4.63;;;4.03;;
72493;SDS011;60520;49.182;-0.348;2022-12-07T07:02:01;4.65;;;3.70;;
72493;SDS011;60520;49.182;-0.348;2022-12-07T07:04:28;4.03;;;3.60;;
72493;SDS011;60520;49.182;-0.348;2022-12-07T07:06:55;4.43;;;3.72;;
72493;SDS011;60520;49.182;-0.348;2022-12-07T07:09:22;4.75;;;3.97;;
72493;SDS011;60520;49.182;-0.348;2022-12-07T07:11:50;4.40;;;3.67;;
72493;SDS011;60520;49.182;-0.348;2022-12-07T07:14:17;4.68;;;3.78;;
72493;SDS011;60520;49.182;-0.348;2022-12-07T07:16:45;3.80;;;3.28;;
72493;SDS011;60520;49.182;-0.348;2022-12-07T07:19:13;4.13;;;3.53;;
72493;SDS011;60520;49.182;-0.348;2022-12-07T07:21:40;4.72;;;3.92;;
72493;SDS011;60520;49.182;-0.348;2022-12-07T07:24:07;4.28;;;3.40;;
72493;SDS011;60520;49.182;-0.348;2022-12-07T07:26:34;4.18;;;3.70;;
72493;SDS011;60520;49.182;-0.348;2022-12-07T07:29:01;4.00;;;3.40;;
72493;SDS011;60520;49.182;-0.348;2022-12-07T07:31:28;4.32;;;3.78;;
72493;SDS011;60520;49.182;-0.348;2022-12-07T07:33:57;4.80;;;3.72;;
72493;SDS011;60520;49.182;-0.348;2022-12-07T07:36:24;4.25;;;3.50;;
72493;SDS011;60520;49.182;-0.348;2022-12-07T07:38:51;4.13;;;3.60;;
72493;SDS011;60520;49.182;-0.348;2022-12-07T07:41:18;4.88;;;3.60;;
72493;SDS011;60520;49.182;-0.348;2022-12-07T07:43:45;4.70;;;3.75;;
72493;SDS011;60520;49.182;-0.348;2022-12-07T07:46:12;4.07;;;3.67;;
72493;SDS011;60520;49.182;-0.348;2022-12-07T07:48:39;4.95;;;4.00;;
72493;SDS011;60520;49.182;-0.348;2022-12-07T07:51:08;5.05;;;3.80;;
72493;SDS011;60520;49.182;-0.348;2022-12-07T07:53:35;4.40;;;3.72;;
72493;SDS011;60520;49.182;-0.348;2022-12-07T07:56:02;4.90;;;3.55;;
72493;SDS011;60520;49.182;-0.348;2022-12-07T07:58:29;4.05;;;3.65;;
72493;SDS011;60520;49.182;-0.348;2022-12-07T08:00:57;4.10;;;3.63;;
72493;SDS011;60520;49.182;-0.348;2022-12-07T08:03:24;4.43;;;3.80;;
72493;SDS011;60520;49.182;-0.348;2022-12-07T08:05:51;6.05;;;3.72;;
72493;SDS011;60520;49.182;-0.348;2022-12-07T08:08:19;4.03;;;3.60;;
72493;SDS011;60520;49.182;-0.348;2022-12-07T08:10:47;5.30;;;3.83;;
72493;SDS011;60520;49.182;-0.348;2022-12-07T08:13:14;5.03;;;3.80;;
72493;SDS011;60520;49.182;-0.348;2022-12-07T08:15:42;4.78;;;3.88;;
72493;SDS011;60520;49.182;-0.348;2022-12-07T08:18:10;5.65;;;3.88;;
72493;SDS011;60520;49.182;-0.348;2022-12-07T08:20:37;5.25;;;3.70;;
72493;SDS011;60520;49.182;-0.348;2022-12-07T08:23:06;4.43;;;3.72;;
72493;SDS011;60520;49.182;-0.348;2022-12-07T08:25:35;5.32;;;4.05;;
72493;SDS011;60520;49.182;-0.348;2022-12-07T08:28:02;4.25;;;3.85;;
72493;SDS011;60520;49.182;-0.348;2022-12-07T08:30:29;4.60;;;3.65;;
72493;SDS011;60520;49.182;-0.348;2022-12-07T08:32:56;4.63;;;3.95;;
72493;SDS011;60520;49.182;-0.348;2022-12-07T08:35:24;4.20;;;3.80;;
72493;SDS011;60520;49.182;-0.348;2022-12-07T08:37:51;4.65;;;3.90;;
72493;SDS011;60520;49.182;-0.348;2022-12-07T08:40:18;4.05;;;3.55;;
72493;SDS011;60520;49.182;-0.348;2022-12-07T08:42:49;4.80;;;3.70;;
72493;SDS011;60520;49.182;-0.348;2022-12-07T08:45:17;4.43;;;3.80;;
72493;SDS011;60520;49.182;-0.348;2022-12-07T08:47:45;7.28;;;3.72;;
72493;SDS011;60520;49.182;-0.348;2022-12-07T08:50:13;4.68;;;3.78;;
72493;SDS011;60520;49.182;-0.348;2022-12-07T08:52:40;4.25;;;3.47;;
72493;SDS011;60520;49.182;-0.348;2022-12-07T08:55:09;4.97;;;3.58;;
72493;SDS011;60520;49.182;-0.348;2022-12-07T08:57:36;6.15;;;4.20;;
72493;SDS011;60520;49.182;-0.348;2022-12-07T09:00:08;4.97;;;4.07;;
72493;SDS011;60520;49.182;-0.348;2022-12-07T09:02:35;6.93;;;4.70;;
72493;SDS011;60520;49.182;-0.348;2022-12-07T09:05:03;4.82;;;4.00;;
72493;SDS011;60520;49.182;-0.348;2022-12-07T09:07:30;9.30;;;4.55;;
72493;SDS011;60520;49.182;-0.348;2022-12-07T09:09:58;6.40;;;4.22;;
72493;SDS011;60520;49.182;-0.348;2022-12-07T09:12:26;6.85;;;4.68;;
72493;SDS011;60520;49.182;-0.348;2022-12-07T09:14:53;6.88;;;4.78;;
72493;SDS011;60520;49.182;-0.348;2022-12-07T09:17:21;7.82;;;4.72;;
72493;SDS011;60520;49.182;-0.348;2022-12-07T09:19:49;7.05;;;4.80;;
72493;SDS011;60520;49.182;-0.348;2022-12-07T09:22:16;7.80;;;4.53;;
72493;SDS011;60520;49.182;-0.348;2022-12-07T09:24:43;6.90;;;4.57;;
72493;SDS011;60520;49.182;-0.348;2022-12-07T09:27:10;7.38;;;5.15;;
72493;SDS011;60520;49.182;-0.348;2022-12-07T09:29:38;8.15;;;5.00;;
72493;SDS011;60520;49.182;-0.348;2022-12-07T09:32:05;9.45;;;4.78;;
72493;SDS011;60520;49.182;-0.348;2022-12-07T09:34:33;8.88;;;4.60;;
72493;SDS011;60520;49.182;-0.348;2022-12-07T09:37:01;6.53;;;4.53;;
72493;SDS011;60520;49.182;-0.348;2022-12-07T09:39:29;6.13;;;4.50;;
72493;SDS011;60520;49.182;-0.348;2022-12-07T09:41:56;8.57;;;4.97;;
72493;SDS011;60520;49.182;-0.348;2022-12-07T09:44:24;7.32;;;4.95;;
72493;SDS011;60520;49.182;-0.348;2022-12-07T09:46:52;6.55;;;4.55;;
72493;SDS011;60520;49.182;-0.348;2022-12-07T09:49:20;7.65;;;4.93;;
72493;SDS011;60520;49.182;-0.348;2022-12-07T09:51:58;6.97;;;4.45;;
72493;SDS011;60520;49.182;-0.348;2022-12-07T09:54:26;8.85;;;4.70;;
72493;SDS011;60520;49.182;-0.348;2022-12-07T09:56:53;6.28;;;4.63;;
72493;SDS011;60520;49.182;-0.348;2022-12-07T09:59:20;8.05;;;4.75;;
72493;SDS011;60520;49.182;-0.348;2022-12-07T10:01:48;6.90;;;4.47;;
72493;SDS011;60520;49.182;-0.348;2022-12-07T10:04:16;6.82;;;4.65;;
72493;SDS011;60520;49.182;-0.348;2022-12-07T10:06:44;6.40;;;4.63;;
72493;SDS011;60520;49.182;-0.348;2022-12-07T10:09:14;11.15;;;4.97;;
72493;SDS011;60520;49.182;-0.348;2022-12-07T10:11:58;7.07;;;4.95;;
72493;SDS011;60520;49.182;-0.348;2022-12-07T10:14:25;7.78;;;5.05;;
72493;SDS011;60520;49.182;-0.348;2022-12-07T10:16:53;9.13;;;4.90;;
72493;SDS011;60520;49.182;-0.348;2022-12-07T10:19:23;7.93;;;5.13;;
72493;SDS011;60520;49.182;-0.348;2022-12-07T10:22:03;6.72;;;4.82;;
72493;SDS011;60520;49.182;-0.348;2022-12-07T10:24:32;7.72;;;4.93;;
72493;SDS011;60520;49.182;-0.348;2022-12-07T10:26:59;6.15;;;4.55;;
72493;SDS011;60520;49.182;-0.348;2022-12-07T10:29:28;7.68;;;5.35;;
72493;SDS011;60520;49.182;-0.348;2022-12-07T10:31:56;8.35;;;4.68;;
72493;SDS011;60520;49.182;-0.348;2022-12-07T10:34:24;7.30;;;5.07;;
72493;SDS011;60520;49.182;-0.348;2022-12-07T10:36:52;9.35;;;4.97;;
72493;SDS011;60520;49.182;-0.348;2022-12-07T10:39:19;8.85;;;5.38;;
72493;SDS011;60520;49.182;-0.348;2022-12-07T10:41:55;7.25;;;5.28;;
72493;SDS011;60520;49.182;-0.348;2022-12-07T10:44:23;9.85;;;5.20;;
72493;SDS011;60520;49.182;-0.348;2022-12-07T10:46:53;8.05;;;4.97;;
72493;SDS011;60520;49.182;-0.348;2022-12-07T10:49:32;10.15;;;5.63;;
72493;SDS011;60520;49.182;-0.348;2022-12-07T10:52:05;7.63;;;5.10;;
72493;SDS011;60520;49.182;-0.348;2022-12-07T10:54:39;7.75;;;4.70;;
72493;SDS011;60520;49.182;-0.348;2022-12-07T10:57:14;8.77;;;4.85;;
72493;SDS011;60520;49.182;-0.348;2022-12-07T10:59:47;9.00;;;5.43;;
72493;SDS011;60520;49.182;-0.348;2022-12-07T11:02:24;7.55;;;4.95;;
72493;SDS011;60520;49.182;-0.348;2022-12-07T11:04:55;7.95;;;5.35;;
72493;SDS011;60520;49.182;-0.348;2022-12-07T11:07:28;7.65;;;4.90;;
72493;SDS011;60520;49.182;-0.348;2022-12-07T11:10:02;8.57;;;4.72;;
72493;SDS011;60520;49.182;-0.348;2022-12-07T11:12:36;10.43;;;4.85;;
72493;SDS011;60520;49.182;-0.348;2022-12-07T11:15:11;10.40;;;5.35;;
72493;SDS011;60520;49.182;-0.348;2022-12-07T11:17:42;8.88;;;5.30;;
72493;SDS011;60520;49.182;-0.348;2022-12-07T11:20:14;13.07;;;5.68;;
72493;SDS011;60520;49.182;-0.348;2022-12-07T11:22:47;9.48;;;5.57;;
72493;SDS011;60520;49.182;-0.348;2022-12-07T11:25:20;8.50;;;5.72;;
72493;SDS011;60520;49.182;-0.348;2022-12-07T11:27:56;11.13;;;5.78;;
72493;SDS011;60520;49.182;-0.348;2022-12-07T11:30:27;9.38;;;5.30;;
72493;SDS011;60520;49.182;-0.348;2022-12-07T11:33:03;7.95;;;5.47;;
72493;SDS011;60520;49.182;-0.348;2022-12-07T11:35:46;8.25;;;5.65;;
72493;SDS011;60520;49.182;-0.348;2022-12-07T11:38:15;8.88;;;5.63;;
72493;SDS011;60520;49.182;-0.348;2022-12-07T11:40:43;9.93;;;5.90;;
72493;SDS011;60520;49.182;-0.348;2022-12-07T11:43:15;9.00;;;5.47;;
72493;SDS011;60520;49.182;-0.348;2022-12-07T11:45:46;7.45;;;5.70;;
72493;SDS011;60520;49.182;-0.348;2022-12-07T11:48:15;8.90;;;5.55;;
72493;SDS011;60520;49.182;-0.348;2022-12-07T11:50:43;8.93;;;5.55;;
72493;SDS011;60520;49.182;-0.348;2022-12-07T11:53:14;10.35;;;6.35;;
72493;SDS011;60520;49.182;-0.348;2022-12-07T11:55:47;8.15;;;6.00;;
72493;SDS011;60520;49.182;-0.348;2022-12-07T11:58:20;10.38;;;5.70;;
72493;SDS011;60520;49.182;-0.348;2022-12-07T12:00:49;11.13;;;5.65;;
72493;SDS011;60520;49.182;-0.348;2022-12-07T12:03:20;8.57;;;5.82;;
72493;SDS011;60520;49.182;-0.348;2022-12-07T12:05:55;9.43;;;5.85;;
72493;SDS011;60520;49.182;-0.348;2022-12-07T12:08:23;8.57;;;5.85;;
72493;SDS011;60520;49.182;-0.348;2022-12-07T12:10:55;8.25;;;6.10;;
72493;SDS011;60520;49.182;-0.348;2022-12-07T12:13:31;9.93;;;6.00;;
72493;SDS011;60520;49.182;-0.348;2022-12-07T12:16:05;8.40;;;5.97;;
72493;SDS011;60520;49.182;-0.348;2022-12-07T12:21:20;10.30;;;6.80;;
72493;SDS011;60520;49.182;-0.348;2022-12-07T12:23:50;9.35;;;6.68;;
72493;SDS011;60520;49.182;-0.348;2022-12-07T12:26:19;8.15;;;6.07;;
72493;SDS011;60520;49.182;-0.348;2022-12-07T12:28:52;8.82;;;6.60;;
72493;SDS011;60520;49.182;-0.348;2022-12-07T12:36:52;10.85;;;7.32;;
72493;SDS011;60520;49.182;-0.348;2022-12-07T12:39:19;13.07;;;7.53;;
72493;SDS011;60520;49.182;-0.348;2022-12-07T12:41:51;10.73;;;6.82;;
72493;SDS011;60520;49.182;-0.348;2022-12-07T12:47:55;9.85;;;6.97;;
72493;SDS011;60520;49.182;-0.348;2022-12-07T12:50:24;10.80;;;7.55;;
72493;SDS011;60520;49.182;-0.348;2022-12-07T12:52:53;9.07;;;6.85;;
72493;SDS011;60520;49.182;-0.348;2022-12-07T12:55:26;10.52;;;6.90;;
72493;SDS011;60520;49.182;-0.348;2022-12-07T13:00:41;10.20;;;6.15;;
72493;SDS011;60520;49.182;-0.348;2022-12-07T13:03:19;9.27;;;6.47;;
72493;SDS011;60520;49.182;-0.348;2022-12-07T13:05:48;10.40;;;6.53;;
72493;SDS011;60520;49.182;-0.348;2022-12-07T13:08:36;11.00;;;6.55;;
72493;SDS011;60520;49.182;-0.348;2022-12-07T13:11:17;12.90;;;7.05;;
72493;SDS011;60520;49.182;-0.348;2022-12-07T13:13:44;8.80;;;6.38;;
72493;SDS011;60520;49.182;-0.348;2022-12-07T13:18:59;10.25;;;6.30;;
72493;SDS011;60520;49.182;-0.348;2022-12-07T13:21:41;8.82;;;6.40;;
72493;SDS011;60520;49.182;-0.348;2022-12-07T13:24:10;13.57;;;6.60;;
72493;SDS011;60520;49.182;-0.348;2022-12-07T13:26:41;10.95;;;6.10;;
72493;SDS011;60520;49.182;-0.348;2022-12-07T13:29:11;11.82;;;6.53;;
72493;SDS011;60520;49.182;-0.348;2022-12-07T13:31:38;8.77;;;5.88;;
72493;SDS011;60520;49.182;-0.348;2022-12-07T13:36:49;10.52;;;5.72;;
72493;SDS011;60520;49.182;-0.348;2022-12-07T13:39:18;8.38;;;6.30;;
72493;SDS011;60520;49.182;-0.348;2022-12-07T13:41:49;10.95;;;7.57;;
72493;SDS011;60520;49.182;-0.348;2022-12-07T13:44:17;12.90;;;7.97;;
72493;SDS011;60520;49.182;-0.348;2022-12-07T13:46:47;16.10;;;8.23;;
72493;SDS011;60520;49.182;-0.348;2022-12-07T13:49:16;11.88;;;7.63;;
72493;SDS011;60520;49.182;-0.348;2022-12-07T13:51:44;12.35;;;8.13;;
72493;SDS011;60520;49.182;-0.348;2022-12-07T13:54:13;17.02;;;8.38;;
72493;SDS011;60520;49.182;-0.348;2022-12-07T13:56:41;14.30;;;7.90;;
72493;SDS011;60520;49.182;-0.348;2022-12-07T13:59:10;14.90;;;8.23;;
72493;SDS011;60520;49.182;-0.348;2022-12-07T14:01:39;13.60;;;8.40;;
72493;SDS011;60520;49.182;-0.348;2022-12-07T14:04:16;12.90;;;7.97;;
72493;SDS011;60520;49.182;-0.348;2022-12-07T14:06:46;16.35;;;8.63;;
72493;SDS011;60520;49.182;-0.348;2022-12-07T14:09:18;11.38;;;7.93;;
72493;SDS011;60520;49.182;-0.348;2022-12-07T14:11:47;13.32;;;7.95;;
72493;SDS011;60520;49.182;-0.348;2022-12-07T14:14:16;14.43;;;8.45;;
72493;SDS011;60520;49.182;-0.348;2022-12-07T14:16:54;15.45;;;8.82;;
72493;SDS011;60520;49.182;-0.348;2022-12-07T14:22:07;14.68;;;8.75;;
72493;SDS011;60520;49.182;-0.348;2022-12-07T14:24:42;13.43;;;8.35;;
72493;SDS011;60520;49.182;-0.348;2022-12-07T14:27:16;15.10;;;8.00;;
72493;SDS011;60520;49.182;-0.348;2022-12-07T14:29:43;13.00;;;7.63;;
72493;SDS011;60520;49.182;-0.348;2022-12-07T14:32:15;14.35;;;7.70;;
72493;SDS011;60520;49.182;-0.348;2022-12-07T14:34:52;14.85;;;7.78;;
72493;SDS011;60520;49.182;-0.348;2022-12-07T14:37:19;16.17;;;8.07;;
72493;SDS011;60520;49.182;-0.348;2022-12-07T14:39:48;13.00;;;7.57;;
72493;SDS011;60520;49.182;-0.348;2022-12-07T14:42:15;11.82;;;7.68;;
72493;SDS011;60520;49.182;-0.348;2022-12-07T14:44:42;15.77;;;8.13;;
72493;SDS011;60520;49.182;-0.348;2022-12-07T14:47:09;13.73;;;8.98;;
72493;SDS011;60520;49.182;-0.348;2022-12-07T14:49:37;20.52;;;8.48;;
72493;SDS011;60520;49.182;-0.348;2022-12-07T14:52:04;19.60;;;8.98;;
72493;SDS011;60520;49.182;-0.348;2022-12-07T14:54:32;17.92;;;8.57;;
72493;SDS011;60520;49.182;-0.348;2022-12-07T14:57:00;19.30;;;8.63;;
72493;SDS011;60520;49.182;-0.348;2022-12-07T14:59:27;17.48;;;8.38;;
72493;SDS011;60520;49.182;-0.348;2022-12-07T15:01:55;17.02;;;8.65;;
72493;SDS011;60520;49.182;-0.348;2022-12-07T15:04:22;15.30;;;8.55;;
72493;SDS011;60520;49.182;-0.348;2022-12-07T15:06:56;20.17;;;8.88;;